Time;durP1;ratioP1;P1;durP2;ratioP2;P2;SDS_P1;SDS_P2;PMS_P1;PMS_P2;Temp;Humidity;BMP_temperature;BMP_pressure;BME280_temperature;BME280_humidity;BME280_pressure;Samples;Min_cycle;Max_cycle;Signal;HPM_P1;HPM_P2
2022/09/23 00:01:06;;;;;;;8.13;6.90;;;6.30;99.90;;;5.89;88.51;98352.75;5060478;28;20464;-71
2022/09/23 00:03:36;;;;;;;8.93;8.10;;;6.20;99.90;;;5.84;89.14;98356.97;5058266;28;20453;-77
2022/09/23 00:06:06;;;;;;;8.13;7.33;;;6.10;99.90;;;5.64;90.20;98368.13;5066418;28;20531;-72
2022/09/23 00:08:34;;;;;;;8.83;7.93;;;6.00;99.90;;;5.32;90.55;98311.81;5060549;28;20450;-71
2022/09/23 00:11:07;;;;;;;9.40;7.70;;;5.80;99.90;;;5.79;89.82;98361.00;5101462;28;20476;-76
2022/09/23 00:13:35;;;;;;;10.70;7.30;;;6.00;99.90;;;5.82;89.95;98355.28;5063339;28;20478;-73
2022/09/23 00:16:06;;;;;;;8.60;7.70;;;6.00;99.90;;;5.84;89.74;98352.44;5051294;28;20462;-75
2022/09/23 00:18:33;;;;;;;8.70;7.90;;;6.10;99.90;;;5.82;89.41;98349.94;5076423;28;20456;-74
2022/09/23 00:21:04;;;;;;;8.33;7.43;;;6.10;99.90;;;5.80;90.18;98351.94;5065414;28;20983;-73
2022/09/23 00:23:31;;;;;;;7.33;6.70;;;6.10;99.90;;;5.76;89.67;98358.69;5069677;28;20506;-80
2022/09/23 00:26:01;;;;;;;8.73;7.83;;;6.10;99.90;;;5.74;89.40;98360.69;5059926;28;20523;-73
2022/09/23 00:28:31;;;;;;;8.20;7.40;;;6.10;99.90;;;5.68;89.75;98359.53;5076751;28;20457;-73
2022/09/23 00:31:03;;;;;;;7.50;6.90;;;6.10;99.90;;;5.66;90.23;98347.34;5063024;28;20578;-71
2022/09/23 00:33:30;;;;;;;10.70;8.10;;;6.10;99.90;;;5.61;89.92;98344.31;5063758;28;20458;-74
2022/09/23 00:35:59;;;;;;;7.57;6.90;;;6.10;99.90;;;5.65;89.36;98346.50;5064738;28;20546;-73
2022/09/23 00:38:26;;;;;;;8.77;7.50;;;6.00;99.90;;;5.58;90.34;98350.03;5069092;28;20507;-76
2022/09/23 00:40:54;;;;;;;8.37;7.47;;;6.00;99.90;;;5.46;90.44;98333.53;5065918;28;20946;-77
2022/09/23 00:43:38;;;;;;;8.63;7.80;;;6.00;99.90;;;5.56;90.36;98339.50;5101835;28;20480;-80
2022/09/23 00:46:08;;;;;;;8.93;8.13;;;5.90;99.90;;;5.58;90.32;98342.84;5072380;28;20480;-72
2022/09/23 00:48:39;;;;;;;9.63;8.67;;;5.90;99.90;;;5.58;90.29;98342.84;5068495;28;20445;-77
2022/09/23 00:51:09;;;;;;;9.40;7.97;;;5.90;99.90;;;5.54;89.97;98338.88;5055489;28;20718;-72
2022/09/23 00:53:37;;;;;;;10.90;8.23;;;5.90;99.90;;;5.45;89.81;98327.31;5065135;28;20467;-75
2022/09/23 00:56:09;;;;;;;8.90;7.47;;;5.80;99.90;;;5.04;90.24;98266.72;5057009;28;21033;-76
2022/09/23 00:58:41;;;;;;;8.27;7.30;;;5.80;99.90;;;5.46;90.11;98328.16;5061821;28;20483;-73
2022/09/23 01:01:08;;;;;;;8.10;7.30;;;5.70;99.90;;;5.36;89.88;98314.97;5062135;28;20454;-73
2022/09/23 01:03:36;;;;;;;10.60;8.03;;;5.70;99.90;;;5.44;89.36;98335.56;5069024;28;20896;-76
2022/09/23 01:06:03;;;;;;;8.47;7.67;;;5.70;99.90;;;5.38;90.07;98321.00;5059984;28;20529;-77
2022/09/23 01:08:30;;;;;;;10.40;7.77;;;5.70;99.90;;;5.33;89.67;98318.84;5067064;28;20506;-72
2022/09/23 01:11:06;;;;;;;8.70;7.90;;;5.70;99.90;;;5.12;90.55;98291.81;5091960;28;20554;-75
2022/09/23 01:13:45;;;;;;;9.67;7.60;;;5.70;99.90;;;5.32;90.15;98325.22;5066314;28;20468;-73
2022/09/23 01:16:20;;;;;;;9.30;7.53;;;5.70;99.90;;;5.28;89.93;98323.03;5053147;28;20526;-72
2022/09/23 01:18:54;;;;;;;8.20;6.97;;;5.60;99.90;;;5.33;89.97;98318.84;5077164;28;20938;-73
2022/09/23 01:21:38;;;;;;;7.97;7.27;;;5.60;99.90;;;5.24;90.09;98320.72;5063756;28;20474;-72
2022/09/23 01:24:55;;;;;;;7.53;6.87;;;5.60;99.90;;;5.27;89.80;98322.22;5064704;28;20460;-72
2022/09/23 01:27:42;;;;;;;7.57;6.77;;;5.60;99.90;;;5.17;89.83;98302.84;5063259;28;20468;-74
2022/09/23 01:30:42;;;;;;;7.20;6.57;;;5.60;99.90;;;5.19;90.18;98316.88;5053649;28;20773;-79
2022/09/23 01:33:15;;;;;;;7.80;6.50;;;5.60;99.90;;;5.07;88.98;98293.16;5065923;28;20463;-71
2022/09/23 01:36:02;;;;;;;6.60;6.00;;;5.60;99.90;;;5.22;89.40;98305.81;5060621;28;20907;-74
2022/09/23 01:38:42;;;;;;;6.90;6.00;;;5.60;99.90;;;5.22;89.21;98313.84;5062541;28;20995;-74
2022/09/23 01:41:34;;;;;;;8.63;6.50;;;5.50;99.90;;;5.05;89.21;98308.56;5065476;28;20526;-72
2022/09/23 01:44:08;;;;;;;7.50;6.80;;;5.40;99.90;;;4.75;89.93;98289.56;5066665;28;20499;-76
2022/09/23 01:46:46;;;;;;;7.63;6.67;;;5.20;99.90;;;4.68;90.91;98277.91;5055937;28;20491;-72
2022/09/23 01:49:21;;;;;;;7.70;7.00;;;5.10;99.90;;;4.88;91.24;98305.13;5079392;28;20941;-74
2022/09/23 01:51:57;;;;;;;6.80;5.83;;;5.10;99.90;;;4.93;90.69;98302.75;5059274;28;20460;-72
2022/09/23 01:54:32;;;;;;;8.83;6.70;;;5.10;99.90;;;4.88;90.43;98309.63;5070659;28;20462;-79
2022/09/23 01:57:04;;;;;;;7.83;6.73;;;5.10;99.90;;;4.71;90.84;98277.53;5069172;28;20860;-71
2022/09/23 01:59:36;;;;;;;7.70;7.00;;;5.10;99.90;;;4.88;90.69;98309.63;5068327;28;20878;-73
2022/09/23 02:02:10;;;;;;;7.13;6.53;;;5.10;99.90;;;4.83;90.75;98307.44;5067209;28;20511;-71
2022/09/23 02:04:44;;;;;;;7.80;6.37;;;5.10;99.90;;;4.60;90.83;98269.88;5077146;28;20547;-75
2022/09/23 02:07:19;;;;;;;7.10;6.50;;;5.10;99.90;;;4.91;90.73;98309.28;5068003;28;20471;-72
2022/09/23 02:09:57;;;;;;;8.73;6.50;;;5.10;99.90;;;4.67;90.86;98276.22;5061473;28;20470;-73
2022/09/23 02:12:29;;;;;;;8.40;7.70;;;5.10;99.90;;;4.93;90.40;98304.59;5055874;28;21006;-80
2022/09/23 02:15:03;;;;;;;7.00;6.40;;;5.20;99.90;;;4.86;90.20;98295.56;5065467;28;20484;-73
2022/09/23 02:17:38;;;;;;;7.70;7.00;;;5.20;99.90;;;4.75;90.09;98278.03;5059560;28;20497;-75
2022/09/23 02:20:07;;;;;;;7.73;6.93;;;5.20;99.90;;;4.79;90.56;98274.00;5064086;28;20790;-75
2022/09/23 02:22:41;;;;;;;7.30;6.60;;;5.20;99.90;;;4.80;89.61;98281.03;5065016;28;20848;-72
2022/09/23 02:25:11;;;;;;;7.73;7.03;;;5.30;99.90;;;4.91;90.16;98287.84;5064674;28;20805;-74
2022/09/23 02:27:46;;;;;;;8.23;7.43;;;5.20;99.90;;;4.83;90.04;98291.38;5065363;28;20494;-74
2022/09/23 02:30:19;;;;;;;8.13;7.43;;;5.20;99.90;;;4.84;90.05;98290.38;5062517;28;20555;-72
2022/09/23 02:32:55;;;;;;;11.20;6.93;;;5.10;99.90;;;4.77;90.06;98286.72;5071968;28;20449;-72
2022/09/23 02:35:31;;;;;;;7.87;7.03;;;5.10;99.90;;;4.78;90.12;98304.47;5069705;28;20529;-75
2022/09/23 02:38:15;;;;;;;10.23;7.17;;;5.10;99.90;;;4.64;89.78;98288.09;5069593;28;20490;-74
2022/09/23 02:40:53;;;;;;;8.63;7.73;;;5.00;99.90;;;4.75;89.85;98294.94;5064921;28;20506;-73
2022/09/23 02:43:32;;;;;;;8.50;7.60;;;5.00;99.90;;;4.80;89.56;98291.75;5067107;28;20517;-73
2022/09/23 02:46:01;;;;;;;7.03;6.33;;;5.00;99.90;;;4.73;89.61;98275.53;5060808;28;20444;-72
2022/09/23 02:48:34;;;;;;;8.90;8.10;;;5.00;99.90;;;4.28;89.48;98202.03;5066869;28;20463;-72
2022/09/23 02:51:03;;;;;;;9.00;8.07;;;5.00;99.90;;;4.72;89.95;98273.84;5068288;28;20571;-73
2022/09/23 02:53:33;;;;;;;9.67;8.67;;;4.90;99.90;;;4.75;89.40;98294.94;5069267;28;20458;-74
2022/09/23 02:56:01;;;;;;;13.23;8.67;;;5.00;99.90;;;4.71;89.40;98268.69;5066239;28;20540;-73
2022/09/23 02:58:29;;;;;;;9.27;8.37;;;4.90;99.90;;;4.67;89.65;98284.25;5065731;28;20480;-75
2022/09/23 03:01:07;;;;;;;8.70;7.80;;;4.80;99.90;;;4.43;90.13;98253.03;5069092;28;20448;-73
2022/09/23 03:03:45;;;;;;;8.40;7.70;;;4.80;99.90;;;4.61;90.15;98283.09;5066991;28;20529;-74
2022/09/23 03:06:27;;;;;;;10.20;7.90;;;4.70;99.90;;;4.61;90.47;98276.88;5066112;28;20498;-71
2022/09/23 03:08:59;;;;;;;9.23;8.40;;;4.70;99.90;;;4.15;89.55;98213.28;5060621;28;20492;-73
2022/09/23 03:11:27;;;;;;;9.13;8.23;;;4.70;99.90;;;4.58;89.60;98282.59;5096623;28;20503;-76
2022/09/23 03:14:06;;;;;;;10.30;9.20;;;4.70;99.90;;;4.59;90.27;98278.91;5058646;28;20592;-75
2022/09/23 03:16:42;;;;;;;9.70;8.70;;;4.70;99.90;;;4.56;90.38;98268.53;5047997;28;20468;-73
2022/09/23 03:19:24;;;;;;;9.60;8.70;;;4.70;99.90;;;4.53;90.47;98269.72;5059746;28;20540;-71
2022/09/23 03:22:00;;;;;;;8.57;7.77;;;4.70;99.90;;;4.56;90.94;98274.75;5058383;28;20457;-73
2022/09/23 03:24:31;;;;;;;9.47;8.47;;;4.70;99.90;;;4.60;90.53;98267.19;5064213;28;20468;-73
2022/09/23 03:27:03;;;;;;;10.30;8.23;;;4.60;99.90;;;4.42;91.15;98270.09;5061112;28;20504;-79
2022/09/23 03:29:36;;;;;;;11.23;9.00;;;4.60;99.90;;;4.01;91.73;98225.47;5059989;28;21058;-74
2022/09/23 03:32:06;;;;;;;9.30;8.50;;;4.50;99.90;;;4.37;91.91;98271.41;5060270;28;20515;-74
2022/09/23 03:34:37;;;;;;;11.87;9.30;;;4.50;99.90;;;4.29;91.72;98257.22;5061255;28;20456;-70
2022/09/23 03:37:11;;;;;;;10.83;9.60;;;4.40;99.90;;;4.23;92.58;98267.59;5065647;28;20550;-73
2022/09/23 03:39:42;;;;;;;12.33;9.83;;;4.40;99.90;;;4.35;91.95;98272.59;5109509;28;20448;-72
2022/09/23 03:42:15;;;;;;;10.70;9.20;;;4.50;99.90;;;4.35;91.80;98268.06;5072239;28;20465;-74
2022/09/23 03:44:44;;;;;;;11.30;9.53;;;4.50;99.90;;;4.30;92.27;98269.59;5072822;28;20456;-73
2022/09/23 03:47:13;;;;;;;10.43;9.50;;;4.50;99.90;;;4.24;92.75;98266.59;5070851;28;20859;-72
2022/09/23 03:49:44;;;;;;;10.70;9.80;;;4.40;99.90;;;4.28;92.24;98268.91;5067155;28;20979;-71
2022/09/23 03:52:12;;;;;;;10.27;9.27;;;4.40;99.90;;;4.46;92.11;98268.75;5070245;28;21013;-73
2022/09/23 03:54:39;;;;;;;10.20;9.20;;;4.50;99.90;;;4.43;91.86;98264.56;5070538;28;20460;-71
2022/09/23 03:57:06;;;;;;;10.67;9.67;;;4.50;99.90;;;4.41;91.40;98261.22;5070436;28;20440;-74
2022/09/23 03:59:34;;;;;;;9.60;8.70;;;4.60;99.90;;;4.42;91.82;98267.41;5070876;28;20533;-74
2022/09/23 04:02:01;;;;;;;10.40;9.47;;;4.60;99.90;;;4.03;91.47;98194.09;5087339;28;20443;-73
2022/09/23 04:04:32;;;;;;;10.17;9.13;;;4.60;99.90;;;4.33;90.62;98242.53;5071885;28;20458;-76
2022/09/23 04:07:02;;;;;;;10.07;9.07;;;4.70;99.90;;;4.40;90.25;98248.84;5070650;28;20469;-75
2022/09/23 04:09:30;;;;;;;9.70;8.80;;;4.70;99.90;;;4.53;90.64;98259.00;5061556;28;20980;-73
2022/09/23 04:11:57;;;;;;;9.83;8.33;;;4.60;99.90;;;4.49;90.71;98255.88;5069429;28;20540;-73
2022/09/23 04:14:24;;;;;;;10.03;9.00;;;4.70;99.90;;;4.49;89.75;98257.69;5060188;28;20493;-76
2022/09/23 04:16:52;;;;;;;10.03;9.03;;;4.70;99.90;;;4.05;90.89;98202.78;5063675;28;20518;-72
2022/09/23 04:19:19;;;;;;;9.83;8.97;;;4.60;99.90;;;4.32;90.75;98246.16;5068106;28;20467;-70
2022/09/23 04:21:47;;;;;;;9.70;8.57;;;4.60;99.90;;;4.23;90.84;98231.97;5065027;28;20449;-73
2022/09/23 04:24:17;;;;;;;9.97;8.93;;;4.60;99.90;;;4.37;90.85;98243.84;5063502;28;20967;-71
2022/09/23 04:26:44;;;;;;;11.10;8.67;;;4.60;99.90;;;4.54;90.12;98242.78;5064081;28;20594;-74
2022/09/23 04:29:12;;;;;;;8.67;7.77;;;4.60;99.90;;;4.62;89.09;98246.44;5071205;28;20456;-75
2022/09/23 04:31:39;;;;;;;9.70;8.47;;;4.60;99.90;;;4.25;90.49;98225.47;5065654;28;20552;-74
2022/09/23 04:34:06;;;;;;;10.70;9.00;;;4.50;99.90;;;4.44;89.96;98233.28;5063459;28;20869;-72
2022/09/23 04:36:33;;;;;;;10.70;9.60;;;4.50;99.90;;;4.25;90.42;98240.69;5067924;28;20468;-83
2022/09/23 04:39:01;;;;;;;10.83;9.77;;;4.50;99.90;;;4.29;90.77;98243.84;5068417;28;20444;-74
2022/09/23 04:41:30;;;;;;;9.70;8.70;;;4.40;99.90;;;4.23;90.64;98221.28;5092009;28;20450;-71
2022/09/23 04:43:57;;;;;;;10.33;8.70;;;4.50;99.90;;;4.26;90.85;98242.34;5066709;28;20456;-72
2022/09/23 04:46:25;;;;;;;10.73;9.70;;;4.50;99.90;;;4.28;90.99;98242.16;5071739;28;20453;-76
2022/09/23 04:48:52;;;;;;;11.57;9.33;;;4.60;99.90;;;4.28;91.38;98234.16;5072012;28;20799;-72
2022/09/23 04:51:21;;;;;;;10.13;9.13;;;4.50;99.90;;;4.32;90.84;98236.31;5064860;28;20491;-72
2022/09/23 04:53:51;;;;;;;11.47;10.03;;;4.50;99.90;;;4.23;90.41;98248.88;5069764;28;20448;-72
2022/09/23 04:56:22;;;;;;;10.23;9.23;;;4.50;99.90;;;4.29;91.71;98233.13;5061617;28;20465;-77
2022/09/23 04:58:51;;;;;;;9.83;8.93;;;4.50;99.90;;;4.22;91.22;98241.84;5059197;28;20496;-79
2022/09/23 05:01:23;;;;;;;9.90;8.90;;;4.50;99.90;;;4.22;91.08;98228.47;5055131;28;20972;-77
2022/09/23 05:03:51;;;;;;;12.20;10.57;;;4.60;99.90;;;4.28;90.88;98236.81;5094971;28;20465;-78
2022/09/23 05:06:20;;;;;;;11.13;9.93;;;4.60;99.90;;;4.19;91.45;98230.66;5063946;28;20466;-79
2022/09/23 05:08:49;;;;;;;11.37;10.13;;;4.60;99.90;;;4.22;92.08;98228.47;5063963;28;20464;-78
2022/09/23 05:11:17;;;;;;;10.57;9.37;;;4.60;99.90;;;4.28;91.47;98232.31;5063130;28;20590;-78
2022/09/23 05:13:45;;;;;;;12.80;11.03;;;4.70;99.90;;;4.30;92.31;98237.47;5070393;28;20460;-78
2022/09/23 05:16:13;;;;;;;11.87;10.67;;;4.60;99.90;;;4.28;91.20;98235.00;5064996;28;21313;-78
2022/09/23 05:18:43;;;;;;;17.43;10.27;;;4.70;99.90;;;4.24;92.57;98247.88;5064512;28;20495;-76
2022/09/23 05:21:12;;;;;;;11.33;10.20;;;4.60;99.90;;;4.35;92.31;98240.50;5061068;28;20550;-74
2022/09/23 05:23:39;;;;;;;13.80;10.57;;;4.60;99.90;;;4.52;90.96;98243.97;5063040;28;21015;-78
2022/09/23 05:26:09;;;;;;;11.57;10.30;;;4.70;99.90;;;4.50;90.69;98241.47;5067692;28;20546;-77
2022/09/23 05:28:38;;;;;;;11.83;10.33;;;4.70;99.90;;;4.51;91.08;98247.66;5067768;28;20457;-77
2022/09/23 05:31:07;;;;;;;14.77;9.00;;;4.80;99.90;;;4.57;90.21;98240.78;5094752;28;20486;-78
2022/09/23 05:33:37;;;;;;;15.10;10.40;;;4.80;99.90;;;4.50;89.80;98232.59;5078996;28;21016;-76
2022/09/23 05:36:05;;;;;;;13.40;9.90;;;4.80;99.90;;;4.58;89.87;98255.81;5063773;28;20456;-75
2022/09/23 05:38:33;;;;;;;11.60;10.40;;;4.90;99.90;;;4.60;89.74;98248.47;5064501;28;21231;-75
2022/09/23 05:41:03;;;;;;;11.60;10.40;;;4.90;99.90;;;4.67;90.10;98244.09;5058797;28;20456;-77
2022/09/23 05:43:31;;;;;;;17.60;10.50;;;4.90;99.90;;;4.79;89.24;98240.06;5058161;28;20535;-76
2022/09/23 05:46:03;;;;;;;10.80;9.00;;;5.00;99.90;;;4.72;89.56;98240.91;5063531;28;20508;-78
2022/09/23 05:48:31;;;;;;;10.10;8.90;;;5.10;99.90;;;4.33;89.80;98167.63;5067179;28;20480;-77
2022/09/23 05:51:00;;;;;;;14.73;10.30;;;5.10;99.90;;;4.87;89.01;98239.19;5100334;28;20471;-79
2022/09/23 05:53:30;;;;;;;13.27;9.97;;;5.20;99.90;;;4.95;88.96;98249.03;5062887;28;20932;-89
2022/09/23 05:55:57;;;;;;;11.70;10.27;;;5.30;99.90;;;5.03;89.11;98242.81;5064267;28;20438;-74
2022/09/23 05:58:26;;;;;;;12.17;10.40;;;5.30;99.90;;;5.07;88.70;98238.75;5065633;28;20550;-70
2022/09/23 06:00:54;;;;;;;13.57;10.40;;;5.40;99.90;;;5.01;89.12;98242.16;5068680;28;20456;-73
2022/09/23 06:03:22;;;;;;;11.90;9.47;;;5.30;99.90;;;5.23;88.43;98253.91;5064248;28;20467;-78
2022/09/23 06:05:53;;;;;;;10.80;9.70;;;5.50;99.90;;;5.39;87.97;98248.50;5058461;28;20548;-71
2022/09/23 06:08:22;;;;;;;11.23;9.90;;;5.60;99.90;;;5.54;88.59;98245.06;5068705;28;20444;-70
2022/09/23 06:10:50;;;;;;;11.00;10.00;;;5.60;99.90;;;5.43;87.80;98253.50;5066654;28;20456;-72
2022/09/23 06:13:17;;;;;;;10.90;9.20;;;5.70;99.90;;;5.44;87.91;98255.16;5059667;28;20618;-73
2022/09/23 06:15:45;;;;;;;18.23;10.57;;;5.70;99.90;;;4.94;87.44;98169.72;5088196;28;20469;-71
2022/09/23 06:18:13;;;;;;;20.40;10.23;;;5.70;99.90;;;5.56;87.84;98251.06;5060181;28;20452;-70
2022/09/23 06:20:40;;;;;;;14.83;8.90;;;5.80;99.90;;;5.75;87.45;98238.19;5057198;28;20495;-69
2022/09/23 06:23:10;;;;;;;12.97;9.90;;;5.90;99.90;;;5.92;86.75;98245.09;5066837;28;20486;-72
2022/09/23 06:25:38;;;;;;;12.37;10.00;;;6.10;99.90;;;6.02;85.69;98246.75;5062664;28;20968;-72
2022/09/23 06:28:11;;;;;;;10.37;9.47;;;6.20;99.10;;;6.12;85.17;98233.88;5056401;28;20526;-73
2022/09/23 06:30:39;;;;;;;9.77;8.80;;;6.30;98.00;;;6.37;85.53;98247.94;5057632;28;20453;-77
2022/09/23 06:33:06;;;;;;;10.77;9.67;;;6.50;98.60;;;6.66;83.87;98248.13;5055622;28;20477;-76
2022/09/23 06:35:33;;;;;;;10.03;9.00;;;6.70;97.40;;;6.78;83.88;98240.44;5057848;28;20901;-70
2022/09/23 06:38:03;;;;;;;9.23;8.33;;;6.90;96.00;;;6.74;82.89;98248.03;5060287;28;20453;-72
2022/09/23 06:40:34;;;;;;;9.30;8.40;;;7.00;94.90;;;6.80;82.60;98249.16;5063705;28;20513;-77
2022/09/23 06:43:02;;;;;;;11.17;8.50;;;7.00;94.00;;;6.48;82.90;98171.50;5061687;28;20449;-73
2022/09/23 06:45:30;;;;;;;9.33;8.27;;;7.20;94.40;;;6.98;82.27;98251.47;5061529;28;20536;-77
2022/09/23 06:47:58;;;;;;;9.30;8.50;;;7.20;93.40;;;6.92;81.78;98247.66;5062297;28;20478;-74
2022/09/23 06:50:27;;;;;;;10.13;8.77;;;7.20;93.00;;;7.09;82.71;98245.63;5062982;28;20461;-69
2022/09/23 06:52:55;;;;;;;10.50;9.60;;;7.30;93.90;;;7.26;81.56;98248.09;5062963;28;20469;-79
2022/09/23 06:55:26;;;;;;;10.13;9.23;;;7.40;92.80;;;7.09;81.17;98242.94;5052681;28;21308;-77
2022/09/23 06:57:53;;;;;;;9.33;8.60;;;7.50;92.00;;;7.28;80.67;98232.59;5059763;28;21066;-75
2022/09/23 07:00:22;;;;;;;9.50;8.70;;;7.50;92.20;;;7.54;80.39;98236.63;5055215;28;20544;-73
2022/09/23 07:02:49;;;;;;;10.37;8.43;;;7.70;92.50;;;7.66;80.13;98239.63;5056644;28;20470;-76
2022/09/23 07:05:16;;;;;;;10.97;8.63;;;7.80;91.90;;;7.33;80.30;98246.31;5061450;28;20566;-73
2022/09/23 07:07:44;;;;;;;9.57;8.67;;;7.80;90.60;;;7.49;80.41;98242.56;5055066;28;20469;-74
2022/09/23 07:10:12;;;;;;;8.93;8.10;;;7.70;91.10;;;7.65;79.53;98236.09;5062402;28;21337;-76
2022/09/23 07:12:40;;;;;;;9.10;8.23;;;7.80;91.20;;;8.07;78.45;98232.78;5089568;28;20473;-75
2022/09/23 07:15:09;;;;;;;9.60;8.60;;;8.00;91.00;;;8.39;77.29;98237.78;5067016;28;20545;-70
2022/09/23 07:17:41;;;;;;;8.87;7.93;;;8.20;90.60;;;8.39;77.15;98240.47;5065249;28;20453;-69
2022/09/23 07:20:10;;;;;;;9.57;8.77;;;8.30;90.20;;;8.38;77.33;98233.44;5065423;28;20513;-85
2022/09/23 07:22:37;;;;;;;8.97;8.20;;;8.50;89.70;;;8.53;76.96;98241.44;5060552;28;20481;-81
2022/09/23 07:25:05;;;;;;;10.00;9.10;;;8.60;88.70;;;8.74;76.24;98236.00;5062611;28;20531;-77
2022/09/23 07:27:33;;;;;;;10.20;8.97;;;8.70;89.30;;;8.95;75.82;98223.44;5056348;28;20464;-70
2022/09/23 07:30:00;;;;;;;9.13;8.17;;;8.90;89.30;;;8.95;74.76;98228.84;5059171;28;20462;-72
2022/09/23 07:32:27;;;;;;;11.97;8.83;;;9.00;87.70;;;8.90;75.88;98231.31;5058897;28;20580;-69
2022/09/23 07:34:56;;;;;;;9.37;8.40;;;9.10;86.70;;;8.91;76.02;98236.47;5076703;28;20539;-70
2022/09/23 07:37:23;;;;;;;9.87;8.87;;;9.10;86.70;;;9.10;74.97;98231.41;5068652;28;20955;-68
2022/09/23 07:39:51;;;;;;;9.80;8.93;;;9.20;86.30;;;9.46;73.78;98224.03;5062304;28;20844;-82
2022/09/23 07:42:18;;;;;;;9.30;8.40;;;9.40;86.00;;;9.70;73.11;98236.13;5062486;28;20519;-71
2022/09/23 07:44:46;;;;;;;8.43;7.60;;;9.60;86.10;;;9.71;72.97;98215.41;5069967;28;20546;-72
2022/09/23 07:47:14;;;;;;;10.50;9.37;;;9.70;85.90;;;9.77;72.86;98204.63;5057384;28;20470;-69
2022/09/23 07:49:41;;;;;;;9.40;8.47;;;9.90;85.20;;;10.02;72.19;98228.31;5065849;28;20827;-71
2022/09/23 07:52:10;;;;;;;8.17;7.47;;;10.00;83.40;;;10.13;71.72;98218.75;5064011;28;20565;-74
2022/09/23 07:54:37;;;;;;;11.50;8.37;;;10.20;83.00;;;10.42;70.25;98222.09;5087310;28;20524;-73
2022/09/23 07:57:05;;;;;;;9.83;8.90;;;10.40;82.50;;;10.70;69.21;98223.72;5061358;28;20583;-81
2022/09/23 07:59:33;;;;;;;9.57;8.50;;;10.60;82.00;;;10.87;69.52;98224.09;5060786;28;20565;-72
2022/09/23 08:02:00;;;;;;;9.23;8.43;;;10.80;81.80;;;10.84;69.14;98229.06;5062385;28;20448;-73
2022/09/23 08:04:30;;;;;;;9.10;7.57;;;10.90;80.80;;;10.93;68.38;98227.81;5061197;28;20519;-73
2022/09/23 08:07:00;;;;;;;9.33;8.43;;;11.00;80.60;;;11.04;69.41;98235.28;5055624;28;20518;-72
2022/09/23 08:09:31;;;;;;;8.70;7.50;;;11.10;81.00;;;11.08;68.65;98224.88;5053911;28;20495;-73
2022/09/23 08:11:59;;;;;;;8.57;7.87;;;11.10;80.80;;;11.05;68.80;98225.28;5060515;28;20556;-71
2022/09/23 08:14:26;;;;;;;8.00;7.20;;;11.20;80.80;;;11.28;67.96;98235.56;5062849;28;20459;-72
2022/09/23 08:16:54;;;;;;;7.40;6.70;;;11.30;80.50;;;11.26;67.52;98226.84;5061762;28;21010;-70
2022/09/23 08:19:21;;;;;;;9.13;7.50;;;11.30;79.90;;;11.58;66.33;98216.06;5070322;28;20487;-71
2022/09/23 08:21:51;;;;;;;8.13;7.40;;;11.40;79.80;;;11.73;66.42;98213.09;5064607;28;21012;-73
2022/09/23 08:24:22;;;;;;;9.40;6.90;;;11.60;79.90;;;11.85;65.35;98213.22;5068610;28;20488;-77
2022/09/23 08:26:52;;;;;;;7.23;6.53;;;11.80;78.90;;;11.97;65.72;98209.81;5066351;28;20451;-71
2022/09/23 08:29:22;;;;;;;7.20;6.50;;;11.90;79.00;;;12.25;65.13;98209.38;5068220;28;20466;-72
2022/09/23 08:31:51;;;;;;;6.50;6.00;;;12.10;79.00;;;12.19;64.84;98208.38;5066192;28;20482;-74
2022/09/23 08:34:20;;;;;;;6.23;5.73;;;12.30;78.30;;;12.40;64.12;98203.66;5060155;28;20900;-74
2022/09/23 08:36:48;;;;;;;6.30;5.30;;;12.40;78.50;;;12.65;63.30;98200.03;5063966;28;20539;-72
2022/09/23 08:39:17;;;;;;;6.20;5.03;;;12.60;77.80;;;12.60;62.52;98205.31;5069198;28;20484;-74
2022/09/23 08:42:05;;;;;;;4.43;4.10;;;12.70;76.90;;;12.72;61.62;98198.09;5066847;28;20888;-73
2022/09/23 08:44:45;;;;;;;4.23;3.93;;;12.80;76.00;;;13.04;60.45;98197.94;5068367;28;20454;-73
2022/09/23 08:47:21;;;;;;;5.00;4.60;;;13.00;75.50;;;13.10;60.18;98195.38;5068395;28;21009;-72
2022/09/23 08:50:00;;;;;;;4.87;4.47;;;13.10;74.90;;;13.03;60.85;98184.59;5069578;28;20491;-77
2022/09/23 08:52:34;;;;;;;4.47;4.17;;;13.10;75.00;;;13.24;60.19;98191.44;5068395;28;21019;-74
2022/09/23 08:55:03;;;;;;;4.70;4.30;;;13.20;75.00;;;13.53;59.15;98199.84;5084022;28;20510;-75
2022/09/23 08:57:45;;;;;;;3.60;3.40;;;13.40;74.60;;;13.68;58.61;98190.47;5085835;28;20448;-73
2022/09/23 09:00:21;;;;;;;5.20;3.83;;;13.60;73.70;;;13.77;57.83;98189.09;5086727;28;20460;-70
2022/09/23 09:02:49;;;;;;;3.50;3.20;;;13.70;73.20;;;14.00;57.07;98182.03;5106188;28;20549;-72
2022/09/23 09:05:25;;;;;;;3.50;3.30;;;13.90;72.50;;;13.84;57.39;98181.66;5066929;28;20543;-70
2022/09/23 09:07:54;;;;;;;3.83;3.43;;;13.90;72.00;;;13.95;56.43;98182.75;5069393;28;20928;-70
2022/09/23 09:10:26;;;;;;;3.10;2.87;;;14.00;71.10;;;14.04;55.48;98183.25;5060710;28;20463;-75
2022/09/23 09:13:04;;;;;;;3.43;2.93;;;14.10;70.20;;;13.99;55.18;98174.94;5086996;28;20479;-73
2022/09/23 09:15:35;;;;;;;3.23;2.93;;;14.20;69.50;;;13.79;56.33;98173.38;5063146;28;20460;-81
2022/09/23 09:18:07;;;;;;;4.03;2.90;;;14.10;69.50;;;13.70;56.10;98167.47;5071601;28;20458;-73
2022/09/23 09:20:56;;;;;;;4.07;2.70;;;14.00;69.20;;;14.21;54.99;98168.97;5069138;28;20502;-72
2022/09/23 09:23:33;;;;;;;3.03;2.73;;;14.20;68.90;;;14.62;53.96;98172.59;5067955;28;20544;-72
2022/09/23 09:26:02;;;;;;;4.40;3.00;;;14.40;68.80;;;14.33;53.69;98169.81;5065595;28;20491;-73
2022/09/23 09:28:37;;;;;;;2.97;2.67;;;14.50;67.20;;;14.54;52.90;98162.09;5063757;28;20461;-74
2022/09/23 09:31:22;;;;;;;3.60;2.60;;;14.50;67.00;;;14.93;52.22;98165.13;5058183;28;20449;-75
2022/09/23 09:33:57;;;;;;;2.57;2.27;;;14.80;66.60;;;14.83;51.41;98135.00;5068305;28;20570;-71
2022/09/23 09:36:35;;;;;;;3.13;2.83;;;14.90;66.10;;;14.94;52.33;98164.09;5066179;28;20450;-77
2022/09/23 09:39:04;;;;;;;3.50;2.50;;;15.00;66.00;;;15.13;51.35;98174.78;5067330;28;20544;-72
2022/09/23 09:41:31;;;;;;;2.70;2.50;;;15.00;65.60;;;15.39;50.65;98159.78;5068981;28;20460;-79
2022/09/23 09:44:02;;;;;;;3.07;2.50;;;15.20;64.80;;;15.51;50.30;98156.19;5068889;28;20452;-74
2022/09/23 09:47:07;;;;;;;3.90;2.50;;;15.40;64.70;;;15.59;49.89;98150.31;5062406;28;20525;-73
2022/09/23 09:49:43;;;;;;;2.87;2.30;;;15.40;63.70;;;15.58;48.97;98144.06;5059296;28;20502;-77
2022/09/23 09:52:21;;;;;;;2.40;2.20;;;15.60;63.00;;;15.26;49.67;98155.47;5083356;28;20553;-71
2022/09/23 09:54:49;;;;;;;2.60;2.40;;;15.40;62.80;;;15.33;49.32;98151.75;5058160;28;20489;-71
2022/09/23 09:57:37;;;;;;;3.67;2.43;;;15.40;62.60;;;15.06;48.84;98144.16;5068134;28;20862;-72
2022/09/23 10:00:37;;;;;;;2.40;2.20;;;15.40;61.50;;;15.23;49.60;98145.03;5060266;28;20487;-71
2022/09/23 10:03:23;;;;;;;2.60;2.40;;;15.30;62.10;;;15.23;49.91;98134.16;5067387;28;20524;-75
2022/09/23 10:05:53;;;;;;;2.30;2.10;;;15.40;62.00;;;15.43;48.69;98127.47;5067186;28;20460;-70
2022/09/23 10:08:27;;;;;;;2.53;2.10;;;15.40;61.30;;;15.54;47.54;98132.03;5067646;28;20483;-73
2022/09/23 10:11:02;;;;;;;2.43;1.93;;;15.60;60.50;;;15.83;47.49;98117.50;5067697;28;20459;-74
2022/09/23 10:13:31;;;;;;;3.40;2.20;;;15.70;60.40;;;16.07;47.21;98123.66;5067691;28;20511;-72
2022/09/23 10:16:02;;;;;;;2.50;2.30;;;16.00;60.20;;;15.76;47.57;98092.31;5060422;28;21300;-76
2022/09/23 10:18:32;;;;;;;2.07;1.97;;;16.00;60.20;;;16.05;47.53;98114.91;5068657;28;20465;-74
2022/09/23 10:21:12;;;;;;;2.90;2.70;;;16.00;60.20;;;16.30;47.08;98119.06;5065592;28;20467;-71
2022/09/23 10:23:43;;;;;;;3.13;2.43;;;16.20;60.00;;;16.16;47.04;98120.50;5062138;28;20460;-73
2022/09/23 10:26:12;;;;;;;2.23;2.13;;;16.20;59.60;;;16.18;46.58;98121.91;5064893;28;20885;-73
2022/09/23 10:28:46;;;;;;;2.87;2.57;;;16.20;59.30;;;16.07;47.57;98120.09;5063402;28;20490;-73
2022/09/23 10:31:24;;;;;;;2.27;2.10;;;16.20;59.60;;;15.93;47.09;98114.16;5047332;28;20457;-75
2022/09/23 10:33:54;;;;;;;2.63;2.43;;;16.10;59.40;;;16.46;46.47;98106.47;5046477;28;20997;-75
2022/09/23 10:36:22;;;;;;;2.47;2.27;;;16.20;59.40;;;16.76;45.83;98110.69;5044798;28;20939;-72
2022/09/23 10:38:53;;;;;;;2.00;1.90;;;16.50;59.00;;;16.76;44.86;98105.22;5062255;28;20536;-75
2022/09/23 10:47:28;;;;;;;3.23;2.00;;;16.80;57.10;;;16.79;44.18;98104.72;5066206;28;20519;-74
2022/09/23 10:50:08;;;;;;;1.90;1.80;;;16.80;56.60;;;16.88;44.01;98099.63;5066759;28;20568;-74